Time;durP1;ratioP1;P1;durP2;ratioP2;P2;SDS_P1;SDS_P2;PMS_P1;PMS_P2;Temp;Humidity;BMP_temperature;BMP_pressure;BME280_temperature;BME280_humidity;BME280_pressure;Samples;Min_cycle;Max_cycle;Signal;HPM_P1;HPM_P2
2022/08/25 00:02:07;;;;;;;4.93;2.72;;;21.10;68.70;;;;;;5064723;28;20036;-45
2022/08/25 00:04:34;;;;;;;4.70;2.78;;;21.00;68.40;;;;;;5062239;28;20439;-46
2022/08/25 00:07:01;;;;;;;8.63;3.08;;;21.00;69.00;;;;;;5032476;28;20087;-45
2022/08/25 00:09:29;;;;;;;5.15;2.58;;;21.00;68.90;;;;;;5060295;28;20056;-46
2022/08/25 00:11:55;;;;;;;4.65;2.58;;;21.10;68.40;;;;;;5051578;28;20050;-48
2022/08/25 00:14:29;;;;;;;6.13;3.00;;;21.10;68.60;;;;;;5044615;28;20115;-46
2022/08/25 00:16:54;;;;;;;5.00;2.60;;;21.10;68.40;;;;;;5063040;28;20069;-46
2022/08/25 00:19:24;;;;;;;5.75;3.10;;;21.10;68.80;;;;;;5066634;28;20067;-48
2022/08/25 00:21:50;;;;;;;7.13;3.40;;;21.10;68.60;;;;;;5069178;28;20108;-47
2022/08/25 00:24:23;;;;;;;5.57;2.80;;;21.10;68.70;;;;;;5072120;28;20110;-46
2022/08/25 00:26:52;;;;;;;8.40;3.45;;;21.10;69.20;;;;;;5069727;28;20047;-46
2022/08/25 00:29:18;;;;;;;6.93;3.30;;;21.00;69.40;;;;;;5068753;28;20098;-45
2022/08/25 00:31:44;;;;;;;4.45;3.10;;;21.00;69.10;;;;;;5058578;28;20038;-46
2022/08/25 00:34:14;;;;;;;5.75;3.30;;;21.00;68.80;;;;;;5061475;28;20430;-45
2022/08/25 00:36:40;;;;;;;4.63;2.83;;;21.00;68.80;;;;;;5056373;28;20457;-46
2022/08/25 00:39:07;;;;;;;7.43;3.08;;;21.00;69.00;;;;;;5050604;28;20033;-47
2022/08/25 00:41:36;;;;;;;7.43;3.03;;;20.90;68.60;;;;;;5052036;28;20037;-48
2022/08/25 00:44:06;;;;;;;7.28;3.80;;;20.90;69.20;;;;;;5054983;28;20358;-46
2022/08/25 00:46:41;;;;;;;5.78;3.40;;;20.90;69.50;;;;;;5061788;28;20069;-47
2022/08/25 00:49:16;;;;;;;5.57;2.88;;;20.90;69.90;;;;;;5064790;28;20036;-46
2022/08/25 00:52:01;;;;;;;4.75;3.30;;;20.90;69.90;;;;;;5038750;28;20043;-48
2022/08/25 00:54:41;;;;;;;4.80;3.20;;;20.90;70.80;;;;;;5065664;28;20109;-45
2022/08/25 00:57:08;;;;;;;;;;;20.80;70.60;;;;;;5058046;28;20037;-45
2022/08/25 00:59:34;;;;;;;9.57;4.05;;;20.80;70.60;;;;;;5063260;28;19924;-47
2022/08/25 01:02:01;;;;;;;5.57;2.80;;;20.70;71.50;;;;;;5048025;28;20332;-45
2022/08/25 01:04:27;;;;;;;5.30;3.50;;;20.70;71.90;;;;;;5051687;28;20083;-47
2022/08/25 01:06:55;;;;;;;6.97;3.35;;;20.60;71.70;;;;;;5055181;28;20021;-48
2022/08/25 01:09:21;;;;;;;7.72;3.45;;;20.60;71.90;;;;;;5029974;28;20083;-46
2022/08/25 01:11:49;;;;;;;6.15;2.85;;;20.60;71.50;;;;;;5031810;28;20032;-46
2022/08/25 01:14:17;;;;;;;5.55;3.42;;;20.50;71.80;;;;;;5058158;28;20032;-46
2022/08/25 01:16:43;;;;;;;7.50;3.95;;;20.50;72.00;;;;;;5056658;28;20029;-46
2022/08/25 01:19:15;;;;;;;6.88;3.15;;;20.50;72.10;;;;;;5030789;28;20047;-46
2022/08/25 01:21:50;;;;;;;9.27;5.18;;;20.50;72.40;;;;;;5049237;28;20358;-47
2022/08/25 01:24:45;;;;;;;7.10;3.85;;;20.50;72.70;;;;;;5046680;28;20025;-45
2022/08/25 01:27:11;;;;;;;6.75;3.92;;;20.50;72.90;;;;;;5059715;28;20100;-46
2022/08/25 01:29:37;;;;;;;6.85;3.63;;;20.50;72.70;;;;;;5050720;28;20037;-46
2022/08/25 01:32:09;;;;;;;5.35;3.38;;;20.50;72.90;;;;;;5055455;28;20045;-46
2022/08/25 01:34:40;;;;;;;7.63;3.63;;;20.40;72.90;;;;;;5048323;28;20043;-46
2022/08/25 01:37:07;;;;;;;5.35;4.03;;;20.40;73.20;;;;;;5068017;28;20029;-47
2022/08/25 01:39:35;;;;;;;6.10;3.72;;;20.40;73.30;;;;;;5066643;28;20060;-46
2022/08/25 01:42:08;;;;;;;5.25;3.60;;;20.40;73.50;;;;;;5049241;28;20445;-46
2022/08/25 01:44:36;;;;;;;5.45;3.88;;;20.40;73.90;;;;;;5037856;28;20033;-48
2022/08/25 01:47:03;;;;;;;6.20;3.53;;;20.30;73.90;;;;;;5056163;28;20422;-45
2022/08/25 01:49:29;;;;;;;6.68;4.25;;;20.30;74.00;;;;;;5038628;28;20374;-46
2022/08/25 01:52:10;;;;;;;4.05;3.33;;;20.30;73.90;;;;;;5051750;28;20035;-45
2022/08/25 01:54:36;;;;;;;6.18;4.00;;;20.30;74.10;;;;;;5052085;28;20047;-45
2022/08/25 01:57:01;;;;;;;7.60;3.78;;;20.30;74.30;;;;;;5062785;28;20359;-46
2022/08/25 01:59:27;;;;;;;6.68;4.57;;;20.20;74.10;;;;;;5059477;28;20048;-46
2022/08/25 02:01:53;;;;;;;7.07;5.18;;;20.20;74.00;;;;;;5047938;28;20033;-46
2022/08/25 02:04:19;;;;;;;7.65;3.40;;;20.20;74.00;;;;;;5048787;28;20037;-45
2022/08/25 02:06:49;;;;;;;8.27;4.80;;;20.20;74.00;;;;;;5030523;28;20032;-46
2022/08/25 02:09:17;;;;;;;7.38;4.25;;;20.20;73.80;;;;;;5058444;28;20067;-46
2022/08/25 02:11:47;;;;;;;5.47;3.90;;;20.10;73.80;;;;;;5067002;28;20043;-46
2022/08/25 02:14:18;;;;;;;8.60;4.47;;;20.10;74.10;;;;;;5063624;28;20163;-47
2022/08/25 02:16:48;;;;;;;6.25;4.18;;;20.10;74.30;;;;;;5048365;28;20378;-46
2022/08/25 02:19:14;;;;;;;6.35;3.78;;;20.10;74.30;;;;;;5060641;28;20033;-46
2022/08/25 02:21:41;;;;;;;6.63;3.80;;;20.00;74.70;;;;;;5065960;28;20033;-47
2022/08/25 02:24:07;;;;;;;7.50;4.53;;;20.00;74.90;;;;;;5050062;28;20080;-46
2022/08/25 02:26:35;;;;;;;10.18;4.38;;;19.90;75.20;;;;;;5067485;28;20390;-46
2022/08/25 02:29:03;;;;;;;7.93;4.68;;;19.90;75.00;;;;;;5055140;28;20055;-46
2022/08/25 02:31:29;;;;;;;5.65;4.38;;;19.90;75.20;;;;;;5059440;28;20040;-46
2022/08/25 02:33:56;;;;;;;8.80;5.07;;;19.90;75.20;;;;;;5058546;28;20150;-46
2022/08/25 02:36:24;;;;;;;6.43;4.43;;;19.90;75.20;;;;;;5068828;28;20343;-46
2022/08/25 02:38:50;;;;;;;6.03;4.15;;;19.90;75.30;;;;;;5066236;28;20108;-46
2022/08/25 02:41:23;;;;;;;6.47;4.28;;;19.90;75.10;;;;;;5029923;28;20473;-46
2022/08/25 02:43:51;;;;;;;5.97;3.90;;;19.80;75.30;;;;;;5052994;28;20070;-46
2022/08/25 02:46:19;;;;;;;7.57;4.32;;;19.80;75.30;;;;;;5065976;28;20040;-46
2022/08/25 02:48:46;;;;;;;7.00;4.82;;;19.80;75.40;;;;;;5046559;28;20105;-46
2022/08/25 02:51:12;;;;;;;8.15;5.20;;;19.80;75.70;;;;;;5062114;28;20488;-47
2022/08/25 02:53:39;;;;;;;8.35;4.70;;;19.80;75.80;;;;;;5058863;28;20036;-46
2022/08/25 02:56:08;;;;;;;7.07;4.38;;;19.80;76.00;;;;;;5050552;28;20028;-46
2022/08/25 02:58:34;;;;;;;8.55;4.60;;;19.80;75.90;;;;;;5053542;28;20025;-45
2022/08/25 03:01:00;;;;;;;5.72;4.35;;;19.80;76.00;;;;;;5070240;28;20039;-46
2022/08/25 03:03:26;;;;;;;8.02;5.07;;;19.70;76.20;;;;;;5070385;28;20021;-46
2022/08/25 03:05:51;;;;;;;6.80;4.32;;;19.70;76.20;;;;;;5037468;28;20112;-46
2022/08/25 03:08:17;;;;;;;7.80;4.75;;;19.70;76.50;;;;;;5052950;28;20458;-46
2022/08/25 03:10:45;;;;;;;7.78;5.32;;;19.70;76.50;;;;;;5064378;28;20033;-46
2022/08/25 03:13:11;;;;;;;6.63;4.20;;;19.60;76.50;;;;;;5053263;28;20927;-47
2022/08/25 03:15:37;;;;;;;11.48;4.88;;;19.60;76.70;;;;;;5066680;28;20106;-48
2022/08/25 03:18:06;;;;;;;5.78;4.95;;;19.60;77.00;;;;;;5048338;28;20052;-46
2022/08/25 03:20:34;;;;;;;7.28;5.70;;;19.50;77.10;;;;;;5053290;28;20056;-46
2022/08/25 03:23:01;;;;;;;11.23;5.38;;;19.50;77.20;;;;;;5058851;28;20029;-45
2022/08/25 03:28:14;;;;;;;8.25;4.93;;;19.50;77.70;;;;;;5052035;28;20624;-46
2022/08/25 03:30:41;;;;;;;6.93;5.13;;;19.40;77.90;;;;;;5062866;28;20491;-46
2022/08/25 03:33:07;;;;;;;9.13;5.82;;;19.40;78.00;;;;;;5069733;28;20088;-46
2022/08/25 03:35:32;;;;;;;7.28;4.97;;;19.40;78.20;;;;;;5055532;28;20033;-46
2022/08/25 03:37:59;;;;;;;7.90;5.13;;;19.40;78.40;;;;;;5050781;28;20155;-46
2022/08/25 03:40:26;;;;;;;8.82;6.10;;;19.40;78.40;;;;;;5069892;28;20040;-45
2022/08/25 03:42:52;;;;;;;7.95;5.25;;;19.40;78.70;;;;;;5053311;28;20028;-46
2022/08/25 03:45:21;;;;;;;9.50;5.38;;;19.40;78.90;;;;;;5066488;28;20104;-45
2022/08/25 03:47:49;;;;;;;10.48;6.13;;;19.40;79.00;;;;;;5066256;28;20043;-46
2022/08/25 03:50:19;;;;;;;11.27;6.32;;;19.30;78.90;;;;;;5042954;28;20460;-45
2022/08/25 03:52:50;;;;;;;12.73;6.80;;;19.30;79.30;;;;;;5052212;28;20041;-45
2022/08/25 03:55:16;;;;;;;8.68;6.70;;;19.30;79.30;;;;;;5046702;28;20400;-46
2022/08/25 03:57:44;;;;;;;14.57;6.50;;;19.30;79.40;;;;;;5071324;28;20032;-48
2022/08/25 04:00:11;;;;;;;8.88;6.05;;;19.30;79.70;;;;;;5066471;28;20050;-46
2022/08/25 04:02:36;;;;;;;9.52;6.75;;;19.30;79.90;;;;;;5051820;28;20593;-46
2022/08/25 04:05:03;;;;;;;9.55;5.97;;;19.30;79.90;;;;;;5060692;28;20090;-46
2022/08/25 04:07:28;;;;;;;9.50;7.20;;;19.30;80.10;;;;;;5064463;28;20028;-46
2022/08/25 04:10:01;;;;;;;9.27;6.25;;;19.20;80.20;;;;;;5068636;28;20021;-46
2022/08/25 04:12:27;;;;;;;9.30;6.95;;;19.30;80.50;;;;;;5047190;28;20067;-45
2022/08/25 04:14:53;;;;;;;7.70;6.55;;;19.20;80.50;;;;;;5051564;28;20058;-45
2022/08/25 04:17:18;;;;;;;9.90;7.25;;;19.20;80.60;;;;;;5048312;28;20036;-46
2022/08/25 04:19:44;;;;;;;9.38;7.68;;;19.20;80.70;;;;;;5048542;28;20029;-46
2022/08/25 04:22:12;;;;;;;8.77;7.10;;;19.20;80.90;;;;;;5068726;28;20024;-45
2022/08/25 04:24:39;;;;;;;11.15;6.90;;;19.20;81.10;;;;;;5069716;28;20035;-46
2022/08/25 04:27:04;;;;;;;9.35;7.28;;;19.10;81.50;;;;;;5046877;28;20033;-46
2022/08/25 04:29:30;;;;;;;8.80;7.65;;;19.10;81.70;;;;;;5056700;28;20147;-47
2022/08/25 04:31:56;;;;;;;9.57;7.38;;;19.10;81.60;;;;;;5067869;28;20043;-46
2022/08/25 04:34:24;;;;;;;10.13;7.10;;;19.10;81.60;;;;;;5069159;28;20137;-46
2022/08/25 04:36:50;;;;;;;10.88;8.23;;;19.10;81.70;;;;;;5058646;28;20461;-46
2022/08/25 04:39:19;;;;;;;11.57;7.38;;;19.10;81.90;;;;;;5068498;28;20032;-47
2022/08/25 04:41:47;;;;;;;14.93;7.83;;;19.10;82.10;;;;;;5066886;28;20029;-46
2022/08/25 04:44:13;;;;;;;10.40;7.65;;;19.10;82.10;;;;;;5050058;28;20167;-46
2022/08/25 04:46:39;;;;;;;10.50;7.97;;;19.10;82.20;;;;;;5057132;28;20106;-48
2022/08/25 04:49:05;;;;;;;9.25;7.32;;;19.10;82.10;;;;;;5061778;28;20111;-46
2022/08/25 04:51:35;;;;;;;10.73;8.45;;;19.10;82.20;;;;;;5039360;28;20560;-45
2022/08/25 04:54:06;;;;;;;11.20;7.85;;;19.10;82.40;;;;;;5059703;28;20345;-46
2022/08/25 04:56:32;;;;;;;8.60;7.75;;;19.10;82.40;;;;;;5065941;28;20028;-45
2022/08/25 04:59:06;;;;;;;10.27;8.57;;;19.20;82.80;;;;;;5060887;28;20111;-46
2022/08/25 05:01:33;;;;;;;8.93;7.43;;;19.30;82.50;;;;;;5057094;28;20037;-46
2022/08/25 05:04:00;;;;;;;10.55;8.57;;;19.30;82.50;;;;;;5056266;28;20154;-48
2022/08/25 05:06:27;;;;;;;9.75;8.75;;;19.30;82.80;;;;;;5063610;28;20489;-45
2022/08/25 05:08:56;;;;;;;10.75;7.82;;;19.30;82.20;;;;;;5056833;28;20107;-46
2022/08/25 05:11:23;;;;;;;10.93;9.57;;;19.30;82.70;;;;;;5062887;28;20060;-47
2022/08/25 05:13:50;;;;;;;10.98;8.38;;;19.30;82.20;;;;;;5054380;28;20767;-45
2022/08/25 05:16:17;;;;;;;9.85;8.80;;;19.30;82.30;;;;;;5047456;28;20057;-46
2022/08/25 05:18:43;;;;;;;9.35;8.35;;;19.30;82.40;;;;;;5056210;28;20040;-46
2022/08/25 05:21:12;;;;;;;13.52;9.20;;;19.40;83.00;;;;;;5056692;28;20415;-45
2022/08/25 05:23:41;;;;;;;10.68;8.93;;;19.40;82.80;;;;;;5059378;28;20100;-46
2022/08/25 05:26:15;;;;;;;12.50;9.30;;;19.40;82.90;;;;;;5054094;28;20025;-48
2022/08/25 05:28:41;;;;;;;9.85;8.25;;;19.40;83.00;;;;;;5040087;28;20333;-45
2022/08/25 05:31:13;;;;;;;11.63;9.98;;;19.40;83.10;;;;;;5055866;28;20028;-45
2022/08/25 05:33:40;;;;;;;10.57;8.95;;;19.40;83.20;;;;;;5041698;28;20032;-48
2022/08/25 05:36:09;;;;;;;13.40;8.77;;;19.50;83.20;;;;;;5047220;28;20044;-46
2022/08/25 05:38:40;;;;;;;9.90;8.65;;;19.50;83.50;;;;;;5064511;28;20764;-45
2022/08/25 05:41:11;;;;;;;9.57;8.57;;;19.50;83.40;;;;;;5057651;28;20120;-45
2022/08/25 05:43:45;;;;;;;11.30;10.18;;;19.50;83.80;;;;;;5041456;28;20179;-46
2022/08/25 05:46:14;;;;;;;13.30;9.77;;;19.50;83.90;;;;;;5024278;28;20400;-46
2022/08/25 05:48:40;;;;;;;11.82;10.60;;;19.50;84.30;;;;;;5035603;28;20036;-49
2022/08/25 05:51:09;;;;;;;11.18;10.00;;;19.60;84.20;;;;;;5055039;28;20036;-45
2022/08/25 05:53:38;;;;;;;10.80;9.70;;;19.60;84.40;;;;;;5037030;28;20163;-46
2022/08/25 05:56:03;;;;;;;10.95;9.45;;;19.60;84.10;;;;;;5057629;28;20329;-46
2022/08/25 05:58:30;;;;;;;14.25;10.07;;;19.60;84.10;;;;;;5056424;28;20477;-46
2022/08/25 06:03:45;;;;;;;11.88;10.00;;;19.70;84.30;;;;;;5058604;28;20086;-46
2022/08/25 06:06:11;;;;;;;12.40;10.57;;;19.70;84.10;;;;;;5036552;28;20025;-47
2022/08/25 06:08:36;;;;;;;10.70;9.38;;;19.80;84.40;;;;;;5031097;28;20025;-46
2022/08/25 06:11:02;;;;;;;10.98;9.88;;;19.80;84.70;;;;;;5052358;28;20456;-46
2022/08/25 06:13:27;;;;;;;12.23;10.40;;;19.90;84.60;;;;;;5039586;28;20041;-46
2022/08/25 06:15:57;;;;;;;12.93;10.55;;;19.90;84.80;;;;;;5054141;28;20457;-46
2022/08/25 06:18:23;;;;;;;13.25;9.77;;;19.90;84.60;;;;;;5058514;28;20037;-46
2022/08/25 06:20:50;;;;;;;12.90;10.23;;;20.00;84.80;;;;;;5033726;28;20123;-46
2022/08/25 06:23:18;;;;;;;11.02;8.63;;;20.00;84.70;;;;;;5061941;28;20338;-46
2022/08/25 06:25:49;;;;;;;12.35;10.88;;;20.10;84.80;;;;;;5054318;28;20047;-46
2022/08/25 06:28:14;;;;;;;14.02;10.23;;;20.20;84.70;;;;;;5039100;28;20032;-46
2022/08/25 06:30:40;;;;;;;11.13;10.05;;;20.20;84.90;;;;;;5047747;28;20037;-48
2022/08/25 06:33:05;;;;;;;13.65;11.15;;;20.30;84.90;;;;;;5042382;28;20706;-46
2022/08/25 06:35:31;;;;;;;10.90;9.75;;;20.30;84.80;;;;;;5062107;28;20441;-46
2022/08/25 06:38:01;;;;;;;11.13;10.00;;;20.30;84.80;;;;;;5039601;28;20055;-46
2022/08/25 06:40:27;;;;;;;13.45;11.63;;;20.40;84.90;;;;;;5046661;28;20115;-46
2022/08/25 06:42:53;;;;;;;20.80;10.75;;;20.40;84.60;;;;;;5069098;28;20419;-47
2022/08/25 06:45:21;;;;;;;12.52;11.23;;;20.40;84.90;;;;;;5050226;28;20460;-47
2022/08/25 06:47:47;;;;;;;11.10;9.85;;;20.50;84.70;;;;;;5052609;28;20116;-46
2022/08/25 06:50:12;;;;;;;10.10;9.10;;;20.50;84.60;;;;;;5048483;28;20139;-48
2022/08/25 06:52:38;;;;;;;16.90;10.82;;;20.60;84.60;;;;;;5042426;28;20036;-48
2022/08/25 06:55:05;;;;;;;12.80;11.50;;;20.60;84.80;;;;;;5069958;28;20029;-46
2022/08/25 06:57:34;;;;;;;14.07;11.20;;;20.70;84.40;;;;;;5057540;28;20060;-47
2022/08/25 07:00:00;;;;;;;15.90;10.10;;;20.70;84.50;;;;;;5030141;28;20029;-46
2022/08/25 07:02:26;;;;;;;12.13;9.93;;;20.80;84.30;;;;;;5057045;28;20036;-48
2022/08/25 07:04:52;;;;;;;15.02;11.27;;;20.90;84.10;;;;;;5065741;28;20040;-48
2022/08/25 07:07:18;;;;;;;13.77;10.55;;;20.90;83.90;;;;;;5064838;28;20047;-46
2022/08/25 07:09:44;;;;;;;11.38;10.07;;;20.90;83.90;;;;;;5058560;28;20040;-46
2022/08/25 07:12:12;;;;;;;12.52;9.32;;;21.10;83.70;;;;;;5065706;28;20378;-47
2022/08/25 07:14:37;;;;;;;10.32;9.23;;;21.10;84.10;;;;;;5060473;28;20028;-48
2022/08/25 07:17:03;;;;;;;10.93;9.15;;;21.20;84.10;;;;;;5065832;28;20478;-47
2022/08/25 07:19:29;;;;;;;9.85;8.85;;;21.20;84.20;;;;;;5064148;28;20098;-46
2022/08/25 07:21:55;;;;;;;12.63;10.57;;;21.30;83.90;;;;;;5061294;28;20066;-49
2022/08/25 07:24:22;;;;;;;17.05;11.00;;;21.40;84.10;;;;;;5065326;28;20442;-48
2022/08/25 07:26:47;;;;;;;13.07;10.20;;;21.40;83.70;;;;;;5069410;28;20103;-46
2022/08/25 07:29:35;;;;;;;11.32;10.18;;;21.40;83.70;;;;;;5040074;28;20545;-46
2022/08/25 07:32:04;;;;;;;12.45;11.00;;;21.40;83.70;;;;;;5062668;28;20048;-46
2022/08/25 07:37:18;;;;;;;14.93;10.55;;;21.60;83.80;;;;;;5060046;28;20055;-47
2022/08/25 07:39:44;;;;;;;14.95;10.60;;;21.70;83.40;;;;;;5068039;28;20033;-46
2022/08/25 07:42:12;;;;;;;11.57;10.38;;;21.80;82.70;;;;;;5061329;28;20039;-46
2022/08/25 07:44:38;;;;;;;14.85;9.45;;;21.90;82.70;;;;;;5049030;28;20032;-46
2022/08/25 07:47:03;;;;;;;11.10;9.98;;;22.20;82.60;;;;;;5068576;28;20390;-48
2022/08/25 07:49:29;;;;;;;10.65;9.55;;;22.50;82.10;;;;;;5067027;28;20021;-46
2022/08/25 07:51:55;;;;;;;12.25;9.35;;;22.90;81.00;;;;;;5068055;28;20516;-47
2022/08/25 07:54:21;;;;;;;9.82;8.82;;;23.30;79.20;;;;;;5051271;28;20393;-47
2022/08/25 07:56:50;;;;;;;11.93;8.40;;;23.70;77.80;;;;;;5055988;28;20100;-46
2022/08/25 07:59:15;;;;;;;11.80;8.18;;;24.20;76.60;;;;;;5044558;28;20056;-47
2022/08/25 08:01:41;;;;;;;10.60;7.68;;;24.60;74.80;;;;;;5058736;28;20561;-47
2022/08/25 08:04:07;;;;;;;8.68;7.78;;;25.00;74.00;;;;;;5054902;28;20056;-47
2022/08/25 08:06:33;;;;;;;10.15;7.53;;;25.30;72.40;;;;;;5055787;28;20025;-47
2022/08/25 08:08:59;;;;;;;10.57;8.65;;;25.60;71.90;;;;;;5056492;28;20451;-49
2022/08/25 08:11:29;;;;;;;10.75;7.32;;;25.90;70.90;;;;;;5051111;28;20037;-48
2022/08/25 08:13:56;;;;;;;7.35;6.65;;;26.20;70.20;;;;;;5053644;28;20040;-47
2022/08/25 08:16:25;;;;;;;11.68;7.10;;;26.40;69.80;;;;;;5066677;28;20445;-47
2022/08/25 08:18:51;;;;;;;9.53;7.20;;;27.00;69.00;;;;;;5061711;28;20055;-47
2022/08/25 08:21:21;;;;;;;8.55;7.20;;;27.10;68.40;;;;;;5057704;28;20585;-47
2022/08/25 08:23:48;;;;;;;8.85;7.97;;;27.40;66.40;;;;;;5038066;28;20111;-47
2022/08/25 08:26:14;;;;;;;8.45;6.57;;;27.60;66.50;;;;;;5068684;28;20407;-47
2022/08/25 08:28:39;;;;;;;8.88;7.82;;;27.90;67.00;;;;;;5064131;28;20112;-47
2022/08/25 08:31:08;;;;;;;10.65;7.72;;;27.80;65.60;;;;;;5056377;28;20052;-47
2022/08/25 08:33:34;;;;;;;11.30;7.88;;;27.70;65.30;;;;;;5045313;28;20111;-47
2022/08/25 08:36:12;;;;;;;9.80;7.03;;;27.60;65.90;;;;;;5067449;28;20040;-51
2022/08/25 08:38:39;;;;;;;9.77;7.53;;;27.70;66.10;;;;;;5036820;28;20067;-49
2022/08/25 08:44:00;;;;;;;12.00;7.22;;;27.90;66.10;;;;;;5060566;28;20039;-50
2022/08/25 08:46:39;;;;;;;8.55;7.30;;;28.10;64.60;;;;;;5059855;28;20045;-47
2022/08/25 08:49:32;;;;;;;14.23;7.70;;;28.20;64.90;;;;;;5045766;28;20024;-49
2022/08/25 08:52:00;;;;;;;9.02;8.13;;;27.90;66.40;;;;;;5064757;28;20044;-48
2022/08/25 08:54:31;;;;;;;9.23;7.07;;;28.00;65.90;;;;;;5067865;28;20108;-48
2022/08/25 08:57:08;;;;;;;9.55;7.50;;;28.00;65.70;;;;;;5062908;28;20037;-47
2022/08/25 09:00:01;;;;;;;12.30;7.55;;;27.90;65.10;;;;;;5055901;28;20039;-47
2022/08/25 09:03:00;;;;;;;10.75;7.60;;;27.80;65.90;;;;;;5063712;28;20047;-48
2022/08/25 09:05:28;;;;;;;9.52;7.45;;;27.80;65.60;;;;;;5047362;28;20127;-50
2022/08/25 09:07:58;;;;;;;9.73;7.93;;;27.90;65.80;;;;;;5056802;28;20103;-48
2022/08/25 09:10:31;;;;;;;12.20;8.27;;;27.90;65.30;;;;;;5034223;28;20032;-51
2022/08/25 09:13:17;;;;;;;11.05;7.68;;;28.10;65.80;;;;;;5047798;28;20032;-48
2022/08/25 09:18:32;;;;;;;10.10;7.43;;;27.90;65.00;;;;;;5064352;28;20179;-47
2022/08/25 09:21:27;;;;;;;9.93;6.47;;;28.10;66.50;;;;;;5065250;28;20102;-52
2022/08/25 09:24:38;;;;;;;9.02;7.40;;;28.30;66.90;;;;;;5043333;28;20024;-51
2022/08/25 09:27:23;;;;;;;14.20;7.80;;;28.70;64.40;;;;;;5068536;28;20473;-49
2022/08/25 09:29:55;;;;;;;11.57;7.43;;;28.70;64.20;;;;;;5063079;28;21581;-51
2022/08/25 09:32:22;;;;;;;11.43;8.43;;;28.50;65.70;;;;;;5039683;28;22384;-47
2022/08/25 09:34:49;;;;;;;8.50;7.25;;;28.50;64.20;;;;;;5067120;28;20101;-48
2022/08/25 09:37:15;;;;;;;10.75;6.85;;;28.70;63.90;;;;;;5033852;28;20037;-48
2022/08/25 09:39:41;;;;;;;12.13;8.40;;;28.50;66.20;;;;;;5065529;28;20036;-47
2022/08/25 09:42:07;;;;;;;11.63;8.20;;;28.60;64.90;;;;;;5060837;28;20111;-49
2022/08/25 09:44:37;;;;;;;10.73;7.20;;;28.60;63.20;;;;;;5055845;28;20028;-50
2022/08/25 09:47:22;;;;;;;12.20;7.22;;;28.60;63.50;;;;;;5064801;28;20110;-47
2022/08/25 09:50:01;;;;;;;15.13;8.90;;;28.70;63.30;;;;;;5066916;28;20123;-53
2022/08/25 09:52:27;;;;;;;14.52;8.52;;;28.40;64.40;;;;;;5063178;28;20040;-49
2022/08/25 09:54:57;;;;;;;11.80;8.07;;;28.40;63.90;;;;;;5045491;28;20044;-51
2022/08/25 09:57:42;;;;;;;11.93;7.80;;;28.40;63.70;;;;;;5063800;28;20090;-47
2022/08/25 10:00:15;;;;;;;13.00;8.38;;;28.50;64.10;;;;;;5060971;28;20058;-49
2022/08/25 10:02:58;;;;;;;14.98;8.68;;;28.60;64.10;;;;;;5055042;28;20461;-49
2022/08/25 10:05:25;;;;;;;9.75;7.50;;;28.30;64.50;;;;;;5066602;28;20106;-48
2022/08/25 10:07:57;;;;;;;11.82;8.43;;;28.40;63.80;;;;;;5035655;28;20462;-47
2022/08/25 10:10:52;;;;;;;11.30;7.85;;;28.40;64.50;;;;;;5057126;28;20090;-48
2022/08/25 10:13:19;;;;;;;9.35;7.07;;;28.50;65.00;;;;;;5047968;28;20081;-47
2022/08/25 10:15:46;;;;;;;11.70;8.68;;;28.50;64.70;;;;;;5060334;28;20027;-47
2022/08/25 10:18:26;;;;;;;9.05;6.72;;;28.70;62.80;;;;;;5052089;28;20493;-48
2022/08/25 10:21:07;;;;;;;12.60;7.97;;;28.90;63.30;;;;;;5051088;28;20032;-48
2022/08/25 10:23:45;;;;;;;14.20;8.10;;;29.10;62.90;;;;;;5054952;28;20036;-47
2022/08/25 10:26:26;;;;;;;11.63;7.50;;;29.00;63.70;;;;;;5057609;28;20029;-48
2022/08/25 10:29:10;;;;;;;17.67;7.63;;;29.10;63.00;;;;;;5043996;28;20031;-50
2022/08/25 10:31:55;;;;;;;11.82;7.38;;;29.10;63.00;;;;;;5058291;28;20029;-49
2022/08/25 10:34:42;;;;;;;11.02;7.60;;;29.10;62.70;;;;;;5048654;28;20045;-47
2022/08/25 10:37:17;;;;;;;11.75;7.32;;;28.90;61.40;;;;;;5054197;28;20055;-49
2022/08/25 10:40:13;;;;;;;11.07;7.30;;;28.70;62.00;;;;;;5055798;28;20024;-48
2022/08/25 10:43:06;;;;;;;11.20;7.90;;;28.70;64.20;;;;;;5035721;28;20382;-47
2022/08/25 10:45:44;;;;;;;10.00;7.88;;;28.90;62.80;;;;;;5036715;28;20028;-47
2022/08/25 10:48:34;;;;;;;9.60;7.63;;;28.90;62.50;;;;;;5036641;28;20053;-48
2022/08/25 10:51:24;;;;;;;10.55;7.43;;;29.10;61.40;;;;;;5043347;28;20027;-47
2022/08/25 10:54:09;;;;;;;15.93;7.55;;;28.90;61.40;;;;;;5035109;28;20056;-47
2022/08/25 10:56:42;;;;;;;12.18;7.93;;;28.80;62.10;;;;;;5052506;28;20049;-48
2022/08/25 10:59:22;;;;;;;12.65;7.78;;;28.90;61.40;;;;;;5058602;28;20017;-47
2022/08/25 11:02:12;;;;;;;14.13;8.23;;;28.90;63.20;;;;;;5057961;28;20053;-48
2022/08/25 11:04:40;;;;;;;11.48;8.55;;;28.90;62.50;;;;;;5035375;28;20017;-49
2022/08/25 11:07:19;;;;;;;8.85;7.57;;;28.90;61.80;;;;;;5038748;28;20032;-48
2022/08/25 11:09:49;;;;;;;11.52;7.57;;;28.80;60.60;;;;;;5040427;28;20428;-47
2022/08/25 11:12:24;;;;;;;15.75;8.07;;;28.90;62.30;;;;;;5036332;28;20461;-47
2022/08/25 11:14:55;;;;;;;12.70;8.80;;;28.80;62.20;;;;;;5065070;28;20484;-47
2022/08/25 11:17:36;;;;;;;9.60;6.55;;;28.60;61.60;;;;;;5043284;28;20089;-47
2022/08/25 11:20:16;;;;;;;9.18;7.38;;;28.70;63.10;;;;;;5050240;28;20036;-48
2022/08/25 11:22:44;;;;;;;;;;;28.80;63.00;;;;;;5063466;28;20028;-48
2022/08/25 11:25:31;;;;;;;10.45;7.88;;;28.90;61.60;;;;;;5069753;28;19978;-48
2022/08/25 11:28:34;;;;;;;11.20;7.20;;;28.90;61.50;;;;;;5058321;28;20034;-50
2022/08/25 11:31:07;;;;;;;8.93;7.30;;;28.90;61.70;;;;;;5009157;28;20494;-48
2022/08/25 11:33:33;;;;;;;10.73;7.22;;;28.90;61.20;;;;;;5048060;28;20342;-48
2022/08/25 11:36:05;;;;;;;13.75;7.18;;;28.80;61.40;;;;;;5053457;28;20033;-49
2022/08/25 11:39:17;;;;;;;10.52;7.65;;;28.60;61.60;;;;;;5055615;28;20491;-47
2022/08/25 11:42:04;;;;;;;17.67;8.95;;;28.50;60.60;;;;;;5052792;28;20059;-49
2022/08/25 11:44:58;;;;;;;9.68;7.63;;;28.40;63.00;;;;;;5049101;28;20028;-48
2022/08/25 11:47:48;;;;;;;9.18;7.50;;;28.40;63.30;;;;;;5070965;28;20047;-53
2022/08/25 11:50:33;;;;;;;9.98;7.65;;;28.40;63.20;;;;;;5044678;28;20067;-47
2022/08/25 11:53:38;;;;;;;9.25;6.70;;;28.60;62.80;;;;;;5066462;28;20028;-47
2022/08/25 11:56:31;;;;;;;10.57;7.55;;;28.70;61.30;;;;;;5068220;28;20239;-51
2022/08/25 11:58:57;;;;;;;17.88;8.00;;;28.60;61.90;;;;;;5062673;28;20051;-46
2022/08/25 12:01:41;;;;;;;12.32;7.55;;;28.50;61.90;;;;;;5035600;28;20509;-51
2022/08/25 12:04:38;;;;;;;8.93;6.82;;;28.40;61.20;;;;;;5059568;28;20040;-47
2022/08/25 12:07:09;;;;;;;12.25;7.43;;;28.40;61.80;;;;;;5063755;28;20079;-47
2022/08/25 12:09:50;;;;;;;10.95;7.03;;;28.20;62.70;;;;;;5068567;28;20033;-48
2022/08/25 12:12:35;;;;;;;12.48;7.13;;;28.20;61.10;;;;;;5066026;28;20041;-50
2022/08/25 12:15:32;;;;;;;15.40;7.47;;;28.40;62.10;;;;;;5055336;28;20036;-48
2022/08/25 12:18:34;;;;;;;15.77;7.32;;;28.30;61.40;;;;;;5047585;28;20427;-49
2022/08/25 12:21:01;;;;;;;12.30;7.88;;;28.30;60.30;;;;;;5054350;28;20048;-51
2022/08/25 12:23:32;;;;;;;11.07;7.35;;;28.00;62.00;;;;;;5070066;28;20024;-48
2022/08/25 12:26:11;;;;;;;8.30;7.38;;;28.10;62.10;;;;;;5045381;28;20044;-48
2022/08/25 12:28:47;;;;;;;11.73;7.70;;;28.10;63.50;;;;;;5062725;28;20483;-47
2022/08/25 12:31:22;;;;;;;11.48;7.82;;;28.20;63.40;;;;;;5069416;28;20036;-48
2022/08/25 12:34:04;;;;;;;11.95;6.88;;;28.10;62.00;;;;;;5069732;28;20424;-51
2022/08/25 12:36:32;;;;;;;14.90;7.93;;;28.00;61.60;;;;;;5065122;28;20033;-48
2022/08/25 12:39:29;;;;;;;16.42;8.52;;;27.90;63.60;;;;;;5049908;28;20131;-47
2022/08/25 12:42:05;;;;;;;10.43;8.27;;;28.00;64.30;;;;;;5042762;28;20589;-48
2022/08/25 12:44:39;;;;;;;12.02;7.75;;;27.90;63.70;;;;;;5051964;28;20020;-50
2022/08/25 12:47:13;;;;;;;11.40;7.93;;;28.00;65.50;;;;;;5062353;28;20485;-53
2022/08/25 12:49:38;;;;;;;12.85;8.68;;;28.00;65.10;;;;;;5069478;28;20146;-47
2022/08/25 12:52:24;;;;;;;14.10;8.93;;;28.00;63.60;;;;;;5058922;28;20127;-46
2022/08/25 12:54:56;;;;;;;18.67;9.18;;;28.00;63.60;;;;;;5066295;28;20331;-47
2022/08/25 12:57:42;;;;;;;16.38;10.27;;;27.90;64.80;;;;;;5057179;28;20031;-47
2022/08/25 13:00:19;;;;;;;11.43;8.40;;;27.90;65.60;;;;;;5061701;28;20033;-46
2022/08/25 13:03:23;;;;;;;15.07;9.07;;;27.90;64.50;;;;;;5069270;28;20396;-47
2022/08/25 13:06:12;;;;;;;15.23;9.30;;;27.80;65.00;;;;;;5057869;28;20020;-48
2022/08/25 13:08:49;;;;;;;10.52;9.15;;;27.70;65.80;;;;;;5061323;28;20036;-45
2022/08/25 13:11:37;;;;;;;16.42;10.50;;;27.60;65.90;;;;;;5066576;28;20163;-47
2022/08/25 13:14:09;;;;;;;12.98;9.93;;;27.70;66.40;;;;;;5050663;28;20125;-49
2022/08/25 13:16:35;;;;;;;14.52;10.85;;;27.50;65.40;;;;;;5062538;28;20477;-48
2022/08/25 13:19:05;;;;;;;14.57;9.93;;;27.30;65.60;;;;;;5067989;28;20017;-47